Time;durP1;ratioP1;P1;durP2;ratioP2;P2;SDS_P1;SDS_P2;PMS_P1;PMS_P2;Temp;Humidity;BMP_temperature;BMP_pressure;BME280_temperature;BME280_humidity;BME280_pressure;Samples;Min_cycle;Max_cycle;Signal;HPM_P1;HPM_P2
2021/12/21 00:00:45;;;;;;;;;19.25;16.00;;;;;6.63;56.44;102188.75;5032017;28;46088;-64
2021/12/21 00:03:11;;;;;;;;;20.00;17.25;;;;;6.60;56.36;102190.59;5029172;28;45417;-69
2021/12/21 00:05:37;;;;;;;;;23.25;16.00;;;;;6.57;57.04;102177.56;5019731;28;45481;-68
2021/12/21 00:08:08;;;;;;;;;15.50;15.00;;;;;6.54;56.55;102183.69;5002104;28;45519;-61
2021/12/21 00:10:34;;;;;;;;;16.75;14.00;;;;;6.54;57.30;102175.00;5001606;28;45468;-62
2021/12/21 00:13:06;;;;;;;;;18.25;15.00;;;;;6.51;57.31;102178.53;5016750;28;45474;-62
2021/12/21 00:15:53;;;;;;;;;18.75;13.25;;;;;6.47;57.16;102171.63;5024091;28;45465;-62
2021/12/21 00:20:59;;;;;;;;;17.75;14.00;;;;;6.41;57.80;102164.78;5027859;28;45711;-62
2021/12/21 00:23:34;;;;;;;;;16.00;15.00;;;;;6.37;57.53;102160.47;5028998;28;45454;-62
2021/12/21 00:26:04;;;;;;;;;21.50;16.25;;;;;6.36;57.65;102160.50;5029499;28;45604;-62
2021/12/21 00:28:37;;;;;;;;;16.00;12.25;;;;;6.31;57.94;102157.97;5025459;28;45505;-62
2021/12/21 00:31:03;;;;;;;;;14.25;10.25;;;;;6.28;58.04;102160.66;5028625;28;45878;-62
2021/12/21 00:33:29;;;;;;;;;17.50;14.00;;;;;6.25;57.14;102162.47;5025369;28;45454;-62
2021/12/21 00:35:54;;;;;;;;;19.50;13.50;;;;;6.23;57.33;102156.38;5028673;28;45341;-62
2021/12/21 00:38:20;;;;;;;;;17.00;14.25;;;;;6.22;57.45;102154.66;5030325;28;45376;-62
2021/12/21 00:40:45;;;;;;;;;25.75;11.00;;;;;6.22;57.45;102158.13;5028484;28;45645;-62
2021/12/21 00:43:11;;;;;;;;;22.00;13.25;;;;;6.21;57.61;102166.03;5027066;28;45384;-62
2021/12/21 00:45:36;;;;;;;;;12.00;10.25;;;;;6.20;57.83;102164.31;5028361;28;45396;-62
2021/12/21 00:48:02;;;;;;;;;22.00;15.00;;;;;6.17;57.35;102157.38;5027817;28;45329;-62
2021/12/21 00:50:29;;;;;;;;;16.75;11.25;;;;;6.16;57.79;102150.41;5029307;28;45398;-63
2021/12/21 00:52:55;;;;;;;;;13.00;11.00;;;;;6.13;57.52;102164.41;5026300;28;45908;-62
2021/12/21 00:55:22;;;;;;;;;17.50;12.00;;;;;6.13;57.32;102156.56;5028470;28;45778;-62
2021/12/21 00:57:48;;;;;;;;;20.25;10.75;;;;;6.12;57.80;102156.59;5025856;28;45591;-62
2021/12/21 01:00:16;;;;;;;;;13.25;10.50;;;;;6.07;57.92;102151.44;5027982;28;45539;-62
2021/12/21 01:02:42;;;;;;;;;13.25;10.00;;;;;6.04;57.34;102148.88;5030374;28;45380;-62
2021/12/21 01:05:19;;;;;;;;;16.25;14.00;;;;;6.03;57.96;102144.53;5028138;28;45602;-62
2021/12/21 01:07:49;;;;;;;;;13.00;9.25;;;;;6.05;57.90;102149.75;5028621;28;46680;-62
2021/12/21 01:10:47;;;;;;;;;14.25;11.00;;;;;6.04;58.28;102153.25;5026693;28;45562;-62
2021/12/21 01:16:20;;;;;;;;;13.75;10.00;;;;;5.98;58.03;102153.34;5026199;28;45520;-62
2021/12/21 01:18:28;;;;;;;;;18.00;13.00;;;;;5.95;58.44;102138.59;5022842;28;45486;-62
2021/12/21 01:21:06;;;;;;;;;7.75;5.75;;;;;5.93;57.75;102136.91;5027066;28;45830;-62
2021/12/21 01:23:55;;;;;;;;;11.50;11.50;;;;;5.91;57.93;102136.91;5023224;28;45470;-62
2021/12/21 01:29:19;;;;;;;;;14.50;12.25;;;;;5.88;58.46;102142.16;5007617;28;45785;-62
2021/12/21 01:31:58;;;;;;;;;17.00;12.50;;;;;5.85;57.57;102145.69;5027785;28;46323;-62
2021/12/21 01:34:37;;;;;;;;;17.75;12.50;;;;;5.83;57.78;102142.22;5027523;28;45428;-62
2021/12/21 01:50:11;;;;;;;;;13.25;10.75;;;;;5.74;58.42;102137.16;5026814;28;45388;-62
2021/12/21 01:52:37;;;;;;;;;16.50;12.50;;;;;5.73;58.58;102132.81;5029052;28;45543;-62
2021/12/21 01:55:03;;;;;;;;;13.50;10.25;;;;;5.70;58.72;102127.66;5027710;28;45640;-62
2021/12/21 01:57:29;;;;;;;;;17.75;12.00;;;;;5.70;58.36;102135.50;5027811;28;45399;-62
2021/12/21 01:59:54;;;;;;;;;17.50;14.25;;;;;5.69;57.86;102136.38;5027298;28;45707;-63
2021/12/21 02:02:21;;;;;;;;;17.75;13.50;;;;;5.69;58.39;102139.00;5026285;28;46072;-63
2021/12/21 02:04:47;;;;;;;;;13.00;12.50;;;;;5.65;58.16;102132.09;5025818;28;45437;-63
2021/12/21 02:07:13;;;;;;;;;11.75;9.75;;;;;5.66;58.26;102133.81;5028835;28;45472;-63
2021/12/21 02:09:39;;;;;;;;;17.00;14.25;;;;;5.65;58.43;102134.69;5027276;28;45550;-62
2021/12/21 02:12:07;;;;;;;;;15.75;13.75;;;;;5.66;58.84;102130.34;5029981;28;45505;-62
2021/12/21 02:14:33;;;;;;;;;14.75;12.50;;;;;5.65;58.73;102126.84;5029402;28;45614;-62
2021/12/21 02:19:37;;;;;;;;;15.25;12.00;;;;;5.64;58.87;102121.66;5031610;28;45499;-62
2021/12/21 02:22:10;;;;;;;;;20.50;13.50;;;;;5.62;59.14;102126.91;5043613;28;46427;-63
2021/12/21 02:24:46;;;;;;;;;14.25;12.75;;;;;5.62;58.16;102124.31;5026530;28;46552;-62
2021/12/21 02:27:30;;;;;;;;;20.50;11.75;;;;;5.62;58.54;102120.84;5032508;28;45732;-62
2021/12/21 02:29:56;;;;;;;;;14.75;13.00;;;;;5.59;59.49;102119.97;5028423;28;45768;-62
2021/12/21 02:32:22;;;;;;;;;20.00;11.50;;;;;5.58;58.78;102120.00;5031207;28;46106;-62
2021/12/21 02:34:51;;;;;;;;;16.25;14.00;;;;;5.59;59.17;102116.50;5030651;28;45497;-62
2021/12/21 02:37:17;;;;;;;;;20.75;17.50;;;;;5.56;59.59;102106.97;5029936;28;45644;-62
2021/12/21 02:39:42;;;;;;;;;18.50;14.50;;;;;5.57;59.56;102113.06;5029316;28;45371;-62
2021/12/21 02:42:08;;;;;;;;;16.00;14.25;;;;;5.56;58.75;102104.34;5030713;28;45608;-62
2021/12/21 02:44:34;;;;;;;;;8.75;8.75;;;;;5.56;58.40;102106.09;5031243;28;45395;-66
2021/12/21 02:47:00;;;;;;;;;16.25;15.25;;;;;5.53;58.74;102101.81;5029887;28;45452;-66
2021/12/21 02:49:26;;;;;;;;;20.25;15.00;;;;;5.52;59.14;102094.81;5029636;28;45734;-66
2021/12/21 02:51:52;;;;;;;;;18.75;13.00;;;;;5.52;59.05;102101.81;5029011;28;45659;-65
2021/12/21 02:54:20;;;;;;;;;20.50;16.00;;;;;5.48;59.26;102097.53;5030939;28;45521;-66
2021/12/21 02:56:46;;;;;;;;;24.75;16.00;;;;;5.42;59.28;102088.03;5029277;28;45544;-65
2021/12/21 02:59:12;;;;;;;;;17.50;14.75;;;;;5.40;59.47;102089.81;5024893;28;46089;-65
2021/12/21 03:01:39;;;;;;;;;15.25;13.25;;;;;5.37;59.76;102086.38;5029062;28;45652;-65
2021/12/21 03:04:08;;;;;;;;;18.00;15.25;;;;;5.35;60.09;102081.16;5030358;28;45597;-66
2021/12/21 03:11:57;;;;;;;;;21.75;14.75;;;;;5.28;60.19;102079.53;5029368;28;45624;-66
2021/12/21 03:14:26;;;;;;;;;17.50;14.25;;;;;5.24;59.85;102081.34;5029515;28;45508;-65
2021/12/21 03:16:53;;;;;;;;;22.50;14.75;;;;;5.22;60.43;102080.53;5031477;28;45383;-66
2021/12/21 03:19:19;;;;;;;;;20.75;13.75;;;;;5.22;60.27;102083.13;5031558;28;45761;-66
2021/12/21 03:21:45;;;;;;;;;18.25;14.25;;;;;5.21;60.00;102081.41;5029241;28;45677;-65
2021/12/21 03:24:11;;;;;;;;;20.75;16.50;;;;;5.19;60.65;102077.06;5029797;28;45677;-66
2021/12/21 03:26:37;;;;;;;;;15.75;11.75;;;;;5.20;60.44;102081.41;5030037;28;45353;-66
2021/12/21 03:29:05;;;;;;;;;17.50;12.50;;;;;5.19;60.29;102080.56;5031934;28;45351;-66
2021/12/21 03:31:31;;;;;;;;;20.25;14.50;;;;;5.17;60.50;102089.31;5030534;28;46113;-66
2021/12/21 03:33:57;;;;;;;;;15.00;10.00;;;;;5.16;60.25;102085.84;5029955;28;45441;-66
2021/12/21 03:36:23;;;;;;;;;17.50;14.00;;;;;5.14;59.53;102087.63;5029154;28;45584;-66
2021/12/21 03:41:47;;;;;;;;;14.00;12.25;;;;;5.10;59.99;102080.69;5028787;28;45943;-66
2021/12/21 03:44:13;;;;;;;;;18.75;14.00;;;;;5.09;60.32;102083.34;5029730;28;45529;-66
2021/12/21 03:46:46;;;;;;;;;12.25;9.25;;;;;5.06;61.06;102081.66;5028624;28;45364;-66
2021/12/21 03:51:56;;;;;;;;;12.00;10.00;;;;;4.96;60.21;102082.63;5026401;28;45792;-66
2021/12/21 03:54:23;;;;;;;;;17.50;13.00;;;;;4.93;60.58;102091.41;5030397;28;45498;-66
2021/12/21 03:56:50;;;;;;;;;13.50;10.00;;;;;4.94;60.77;102090.50;5029401;28;45348;-66
2021/12/21 03:59:16;;;;;;;;;13.75;10.00;;;;;4.93;60.78;102093.16;5029026;28;45532;-66
2021/12/21 04:01:43;;;;;;;;;20.00;13.25;;;;;4.91;61.17;102092.31;5028130;28;46163;-66
2021/12/21 04:04:08;;;;;;;;;13.00;10.00;;;;;4.90;60.16;102085.38;5027348;28;45452;-67
2021/12/21 04:06:34;;;;;;;;;16.50;11.75;;;;;4.88;60.23;102092.34;5030606;28;45441;-66
2021/12/21 04:09:01;;;;;;;;;14.25;11.50;;;;;4.84;60.80;102082.84;5029575;28;45639;-67
2021/12/21 04:11:26;;;;;;;;;18.75;13.50;;;;;4.82;60.80;102080.25;5028445;28;45995;-67
2021/12/21 04:13:52;;;;;;;;;15.00;12.75;;;;;4.84;60.59;102081.09;5025432;28;45371;-66
2021/12/21 04:16:18;;;;;;;;;18.50;10.00;;;;;4.82;61.48;102082.84;5029264;28;45642;-66
2021/12/21 04:18:43;;;;;;;;;21.50;13.00;;;;;4.80;60.90;102079.38;5029738;28;45441;-66
2021/12/21 04:21:12;;;;;;;;;18.50;13.50;;;;;4.76;60.88;102080.31;5028457;28;46089;-66
2021/12/21 04:23:39;;;;;;;;;18.00;14.25;;;;;4.72;60.72;102079.50;5028422;28;45506;-67
2021/12/21 04:26:05;;;;;;;;;16.25;12.50;;;;;4.72;61.68;102074.28;5027419;28;45597;-66
2021/12/21 04:28:30;;;;;;;;;13.00;12.50;;;;;4.71;61.24;102074.28;5026623;28;45803;-67
2021/12/21 04:30:56;;;;;;;;;14.75;11.00;;;;;4.66;61.42;102076.97;5030213;28;46175;-66
2021/12/21 04:33:21;;;;;;;;;13.75;12.25;;;;;4.62;61.29;102072.69;5028915;28;45677;-66
2021/12/21 04:35:47;;;;;;;;;18.25;15.00;;;;;4.58;61.71;102068.41;5028559;28;45493;-67
2021/12/21 04:38:23;;;;;;;;;15.00;9.75;;;;;4.54;61.94;102069.31;5027854;28;45432;-66
2021/12/21 04:40:56;;;;;;;;;17.25;12.25;;;;;4.53;62.14;102072.81;5027810;28;46762;-67
2021/12/21 04:43:21;;;;;;;;;16.75;12.00;;;;;4.51;61.82;102068.50;5028114;28;45537;-67
2021/12/21 04:45:47;;;;;;;;;16.50;13.75;;;;;4.49;61.64;102066.75;5029014;28;45596;-66
2021/12/21 04:48:13;;;;;;;;;15.50;15.00;;;;;4.47;62.17;102063.28;5029028;28;45729;-66
2021/12/21 04:50:40;;;;;;;;;14.25;12.00;;;;;4.46;62.44;102063.31;5029116;28;46035;-66
2021/12/21 04:53:05;;;;;;;;;11.50;6.00;;;;;4.44;61.55;102065.09;5026828;28;45511;-66
2021/12/21 04:55:31;;;;;;;;;12.00;9.50;;;;;4.40;62.00;102060.78;5028877;28;45348;-67
2021/12/21 04:57:57;;;;;;;;;19.00;12.50;;;;;4.40;62.49;102060.78;5025396;28;45661;-67
2021/12/21 05:00:22;;;;;;;;;13.00;12.00;;;;;4.39;62.37;102062.53;5030011;28;45540;-66
2021/12/21 05:02:48;;;;;;;;;17.25;13.50;;;;;4.39;61.76;102065.13;5028351;28;45421;-66
2021/12/21 05:05:13;;;;;;;;;19.25;9.50;;;;;4.40;62.27;102059.03;5028660;28;45449;-66
2021/12/21 05:07:42;;;;;;;;;13.00;10.25;;;;;4.40;63.00;102066.00;5027253;28;45605;-66
2021/12/21 05:10:09;;;;;;;;;21.25;15.50;;;;;4.37;62.83;102055.63;5028923;28;46173;-66
2021/12/21 05:12:38;;;;;;;;;12.75;9.00;;;;;4.37;62.35;102060.84;5028945;28;45506;-67
2021/12/21 05:15:05;;;;;;;;;17.25;11.00;;;;;4.36;62.40;102062.59;5026746;28;45496;-67
2021/12/21 05:17:32;;;;;;;;;11.50;10.25;;;;;4.32;62.54;102058.28;5030215;28;45657;-67
2021/12/21 05:19:57;;;;;;;;;10.25;8.75;;;;;4.29;62.51;102060.06;5027969;28;46079;-67
2021/12/21 05:22:23;;;;;;;;;13.50;12.25;;;;;4.27;62.74;102072.28;5027295;28;45741;-67
2021/12/21 05:24:50;;;;;;;;;16.25;9.75;;;;;4.26;62.75;102070.50;5027591;28;45489;-67
2021/12/21 05:27:16;;;;;;;;;16.50;12.25;;;;;4.28;62.71;102074.84;5028856;28;45645;-67
2021/12/21 05:29:42;;;;;;;;;16.75;10.50;;;;;4.29;62.64;102070.50;5028531;28;45502;-66
2021/12/21 05:32:08;;;;;;;;;10.50;10.25;;;;;4.30;62.74;102067.88;5029178;28;45422;-67
2021/12/21 05:34:33;;;;;;;;;20.50;12.75;;;;;4.30;63.12;102064.41;5027505;28;45665;-67
2021/12/21 05:37:00;;;;;;;;;17.50;14.75;;;;;4.29;62.97;102066.13;5025490;28;45512;-67
2021/12/21 05:39:37;;;;;;;;;19.00;10.25;;;;;4.28;63.68;102074.00;5027140;28;46320;-66
2021/12/21 05:42:05;;;;;;;;;16.25;14.25;;;;;4.28;62.96;102067.03;5027193;28;45573;-67
2021/12/21 05:44:30;;;;;;;;;18.75;11.00;;;;;4.27;62.63;102070.53;5027870;28;45465;-67
2021/12/21 05:46:56;;;;;;;;;16.25;12.00;;;;;4.25;63.45;102077.47;5046243;28;45418;-67
2021/12/21 05:49:22;;;;;;;;;24.25;16.00;;;;;4.26;63.07;102071.38;5027757;28;46575;-67
2021/12/21 05:51:47;;;;;;;;;12.75;12.00;;;;;4.25;63.24;102077.47;5004685;28;45502;-67
2021/12/21 05:54:15;;;;;;;;;15.25;13.00;;;;;4.25;63.40;102077.47;5004128;28;45321;-66
2021/12/21 05:56:41;;;;;;;;;16.75;12.00;;;;;4.26;63.74;102067.91;5019621;28;45345;-67
2021/12/21 05:59:08;;;;;;;;;15.25;9.25;;;;;4.26;63.45;102073.97;5023773;28;45440;-68
2021/12/21 06:01:34;;;;;;;;;15.25;9.75;;;;;4.25;62.71;102068.78;5023942;28;45249;-67
2021/12/21 06:04:01;;;;;;;;;23.00;17.25;;;;;4.22;63.41;102074.91;5024013;28;45336;-67
2021/12/21 06:06:27;;;;;;;;;20.00;15.50;;;;;4.20;63.77;102074.94;5023952;28;45229;-67
2021/12/21 06:08:54;;;;;;;;;19.25;14.25;;;;;4.19;63.31;102078.44;5023461;28;45423;-66
2021/12/21 06:11:22;;;;;;;;;19.75;15.75;;;;;4.16;63.37;102083.66;5023695;28;45357;-66
2021/12/21 06:27:07;;;;;;;;;24.50;15.50;;;;;4.04;63.55;102082.94;5023523;28;45478;-67
2021/12/21 06:29:33;;;;;;;;;19.00;12.00;;;;;4.04;63.99;102081.22;5023521;28;46519;-67
2021/12/21 06:31:59;;;;;;;;;17.25;13.25;;;;;4.03;63.65;102083.81;5034877;28;45688;-67
2021/12/21 06:34:24;;;;;;;;;12.50;10.75;;;;;4.03;63.98;102087.31;5023572;28;45368;-67
2021/12/21 06:36:50;;;;;;;;;19.75;16.00;;;;;4.02;63.88;102082.09;5025679;28;45443;-67
2021/12/21 06:39:16;;;;;;;;;18.75;14.25;;;;;3.98;64.05;102083.88;5027840;28;45809;-68
2021/12/21 06:41:41;;;;;;;;;18.75;15.25;;;;;3.96;64.30;102077.81;5030948;28;45383;-67
2021/12/21 06:44:09;;;;;;;;;24.50;15.25;;;;;3.95;64.31;102070.88;5023656;28;45272;-67
2021/12/21 06:51:52;;;;;;;;;20.00;14.00;;;;;3.90;63.68;102070.91;5023859;28;45321;-66
2021/12/21 06:54:19;;;;;;;;;20.00;12.00;;;;;3.87;64.42;102072.66;5026466;28;45379;-66
2021/12/21 06:56:45;;;;;;;;;22.25;15.50;;;;;3.85;64.59;102067.47;5022039;28;45144;-66
2021/12/21 06:59:10;;;;;;;;;14.00;11.50;;;;;3.84;64.51;102076.19;5022825;28;45936;-66
2021/12/21 07:01:38;;;;;;;;;26.75;17.00;;;;;3.83;64.64;102082.28;5022993;28;45415;-67
2021/12/21 07:04:06;;;;;;;;;17.50;13.50;;;;;3.81;64.48;102073.63;5022820;28;45732;-66
2021/12/21 07:06:37;;;;;;;;;23.00;16.50;;;;;3.80;64.24;102073.66;5022808;28;45303;-67
2021/12/21 07:12:08;;;;;;;;;27.00;15.75;;;;;3.77;64.47;102081.47;5026594;28;45546;-66
2021/12/21 07:20:18;;;;;;;;;20.50;17.50;;;;;3.69;64.78;102076.31;5040925;28;45587;-68
2021/12/21 07:22:44;;;;;;;;;11.75;11.00;;;;;3.69;64.69;102072.88;5022335;28;45387;-67
2021/12/21 07:25:10;;;;;;;;;18.50;15.00;;;;;3.67;65.13;102077.22;5029870;28;45449;-64
2021/12/21 07:27:35;;;;;;;;;15.75;13.75;;;;;3.67;65.29;102085.06;5032557;28;45582;-64
2021/12/21 07:30:01;;;;;;;;;17.00;15.00;;;;;3.65;64.96;102077.25;5023178;28;45997;-64
2021/12/21 07:32:26;;;;;;;;;24.75;14.50;;;;;3.65;64.46;102074.66;5015161;28;45297;-61
2021/12/21 07:34:52;;;;;;;;;16.75;15.25;;;;;3.63;65.32;102082.47;5033019;28;45343;-64
2021/12/21 07:37:18;;;;;;;;;20.25;12.75;;;;;3.62;65.20;102080.72;5027469;28;45465;-65
2021/12/21 07:39:44;;;;;;;;;12.75;8.00;;;;;3.61;65.24;102088.56;5022660;28;45479;-63
2021/12/21 07:42:09;;;;;;;;;20.25;15.00;;;;;3.61;64.71;102089.44;5027916;28;45395;-63
2021/12/21 07:44:35;;;;;;;;;21.00;14.25;;;;;3.61;64.71;102099.84;5025906;28;45249;-66
2021/12/21 07:47:01;;;;;;;;;23.25;11.75;;;;;3.64;65.10;102097.22;5025727;28;45347;-67
2021/12/21 07:49:26;;;;;;;;;19.25;16.00;;;;;3.64;64.88;102094.63;5023903;28;45431;-67
2021/12/21 07:51:52;;;;;;;;;19.50;13.25;;;;;3.63;64.96;102095.50;5027142;28;45428;-67
2021/12/21 07:54:18;;;;;;;;;19.25;12.00;;;;;3.66;65.14;102096.34;5023846;28;45423;-67
2021/12/21 07:56:45;;;;;;;;;18.25;15.25;;;;;3.66;65.12;102084.19;5023296;28;46358;-67
2021/12/21 07:59:11;;;;;;;;;21.25;18.75;;;;;3.65;64.76;102087.69;5033454;28;47374;-66
2021/12/21 08:01:38;;;;;;;;;19.75;15.00;;;;;3.64;64.60;102086.81;5034353;28;45274;-66
2021/12/21 08:04:04;;;;;;;;;19.00;18.50;;;;;3.63;64.60;102094.63;5027546;28;45495;-64
2021/12/21 08:06:32;;;;;;;;;19.25;16.25;;;;;3.64;65.35;102099.84;5033907;28;45295;-67
2021/12/21 08:08:59;;;;;;;;;21.75;16.50;;;;;3.66;65.03;102107.63;5030550;28;45321;-67
2021/12/21 08:14:04;;;;;;;;;14.75;8.75;;;;;3.68;64.73;102100.66;5022391;28;45331;-67
2021/12/21 08:16:30;;;;;;;;;22.00;16.00;;;;;3.66;65.08;102105.03;5016169;28;45423;-67
2021/12/21 08:18:55;;;;;;;;;17.50;15.00;;;;;3.65;65.27;102103.31;5025858;28;45975;-67
2021/12/21 08:21:23;;;;;;;;;22.00;17.75;;;;;3.67;64.89;102109.38;5024222;28;45222;-67
2021/12/21 08:23:48;;;;;;;;;19.50;17.25;;;;;3.67;65.19;102111.97;5022867;28;45159;-67
2021/12/21 08:26:14;;;;;;;;;20.00;13.25;;;;;3.69;64.88;102114.56;5012812;28;45492;-68
2021/12/21 08:28:40;;;;;;;;;18.50;15.50;;;;;3.72;64.60;102106.72;5021942;28;45345;-63
2021/12/21 08:31:10;;;;;;;;;20.75;16.75;;;;;3.74;65.01;102115.38;5021199;28;45326;-59
2021/12/21 08:33:36;;;;;;;;;16.00;14.75;;;;;3.76;64.39;102113.63;5022428;28;45536;-63
2021/12/21 08:36:02;;;;;;;;;23.00;17.25;;;;;3.80;64.23;102107.53;5020139;28;45432;-55
2021/12/21 08:38:30;;;;;;;;;18.75;11.25;;;;;3.81;64.59;102107.50;5020731;28;45441;-56
2021/12/21 08:40:58;;;;;;;;;20.25;17.25;;;;;3.82;64.45;102109.22;5021584;28;45422;-55
2021/12/21 08:43:25;;;;;;;;;21.50;17.50;;;;;3.83;64.56;102104.88;5021478;28;45313;-56
2021/12/21 08:45:52;;;;;;;;;17.75;15.00;;;;;3.82;64.77;102111.84;5021860;28;45615;-57
2021/12/21 08:48:18;;;;;;;;;15.00;13.50;;;;;3.85;64.52;102109.19;5022258;28;46343;-56
2021/12/21 08:50:47;;;;;;;;;24.00;16.75;;;;;3.83;64.27;102102.28;5021902;28;45313;-55
2021/12/21 08:53:13;;;;;;;;;25.25;16.50;;;;;3.84;64.36;102098.78;5019642;28;45253;-55
2021/12/21 08:55:41;;;;;;;;;23.50;18.75;;;;;3.85;64.19;102103.09;5020134;28;45423;-56
2021/12/21 08:58:08;;;;;;;;;26.00;21.50;;;;;3.86;63.74;102102.22;5013568;28;45324;-56
2021/12/21 09:00:33;;;;;;;;;21.00;19.00;;;;;3.84;63.56;102104.84;5001179;28;45282;-58
2021/12/21 09:02:59;;;;;;;;;26.00;19.00;;;;;3.81;64.17;102106.63;5001439;28;45400;-55
2021/12/21 09:05:28;;;;;;;;;25.25;18.75;;;;;3.81;64.31;102102.28;5009290;28;45605;-57
2021/12/21 09:07:54;;;;;;;;;27.50;17.50;;;;;3.80;64.24;102102.31;5001287;28;46358;-55
2021/12/21 09:10:22;;;;;;;;;25.25;22.00;;;;;3.83;63.64;102103.13;5001037;28;45379;-55
2021/12/21 09:12:49;;;;;;;;;23.25;13.75;;;;;3.82;63.79;102105.75;5001414;28;45234;-55
2021/12/21 09:15:16;;;;;;;;;23.50;17.25;;;;;3.85;63.89;102116.16;5007235;28;45432;-54
2021/12/21 09:17:44;;;;;;;;;24.00;16.00;;;;;3.86;64.09;102121.34;5019498;28;45359;-54
2021/12/21 09:20:13;;;;;;;;;27.75;19.00;;;;;3.88;63.97;102118.75;5016219;28;46278;-58
2021/12/21 09:22:39;;;;;;;;;21.50;16.75;;;;;3.89;64.29;102121.31;5019454;28;45344;-57
2021/12/21 09:25:05;;;;;;;;;18.25;15.50;;;;;3.90;63.75;102112.63;5018828;28;45481;-53
2021/12/21 09:27:30;;;;;;;;;18.75;16.00;;;;;3.95;63.26;102125.63;5013599;28;45562;-55
2021/12/21 09:29:56;;;;;;;;;22.50;16.00;;;;;3.97;63.94;102123.00;5019012;28;45426;-55
2021/12/21 09:32:21;;;;;;;;;17.75;15.25;;;;;3.95;63.76;102119.53;5019569;28;45500;-57
2021/12/21 09:34:47;;;;;;;;;21.75;17.00;;;;;3.98;63.59;102114.28;5020082;28;45450;-56
2021/12/21 09:37:16;;;;;;;;;24.75;15.25;;;;;4.00;63.25;102116.00;5019765;28;45910;-58
2021/12/21 09:39:49;;;;;;;;;22.75;13.50;;;;;4.05;63.45;102118.56;5020141;28;45243;-56
2021/12/21 09:42:18;;;;;;;;;18.00;16.00;;;;;4.10;63.13;102124.59;5021126;28;45369;-56
2021/12/21 09:44:45;;;;;;;;;21.00;19.25;;;;;4.12;63.41;102117.63;5020714;28;45416;-55
2021/12/21 09:47:11;;;;;;;;;22.50;19.50;;;;;4.12;62.93;102117.63;5020500;28;46042;-58
2021/12/21 09:49:38;;;;;;;;;23.50;11.25;;;;;4.16;63.68;102124.53;5020291;28;45462;-54
2021/12/21 09:52:05;;;;;;;;;32.50;23.00;;;;;4.22;63.20;102116.66;5020567;28;45378;-57
2021/12/21 09:54:33;;;;;;;;;26.50;18.00;;;;;4.27;62.45;102122.69;5020352;28;45476;-58
2021/12/21 09:56:58;;;;;;;;;24.50;18.50;;;;;4.28;63.08;102127.00;5020309;28;46434;-53
2021/12/21 09:59:25;;;;;;;;;27.25;19.50;;;;;4.29;62.47;102126.13;5020132;28;45179;-56
2021/12/21 10:01:51;;;;;;;;;20.75;14.50;;;;;4.32;63.34;102114.78;5020365;28;45335;-56
2021/12/21 10:04:18;;;;;;;;;27.50;17.25;;;;;4.37;63.09;102121.69;5020109;28;45478;-56
2021/12/21 10:06:49;;;;;;;;;24.50;20.25;;;;;4.43;62.45;102126.84;5019936;28;46274;-58
2021/12/21 10:09:19;;;;;;;;;27.25;22.25;;;;;4.49;62.12;102129.34;5019500;28;45289;-54
2021/12/21 10:11:50;;;;;;;;;27.50;23.00;;;;;4.55;62.83;102128.44;5020131;28;45380;-55
2021/12/21 10:14:17;;;;;;;;;24.75;20.00;;;;;4.57;61.67;102134.50;5020082;28;45361;-55
2021/12/21 10:16:45;;;;;;;;;23.75;19.00;;;;;4.57;62.08;102134.50;5006529;28;45456;-56
2021/12/21 10:19:22;;;;;;;;;27.00;22.00;;;;;4.61;61.72;102132.72;5019899;28;45167;-56
2021/12/21 10:21:48;;;;;;;;;19.75;16.75;;;;;4.62;62.14;102131.84;5020230;28;45421;-56
2021/12/21 10:24:27;;;;;;;;;21.50;17.50;;;;;4.66;61.83;102130.91;5018598;28;45240;-56
2021/12/21 10:27:06;;;;;;;;;24.00;18.50;;;;;4.66;61.58;102126.56;5019940;28;45371;-55
2021/12/21 10:29:41;;;;;;;;;23.50;14.00;;;;;4.69;61.32;102120.44;5020087;28;45272;-56
2021/12/21 10:32:19;;;;;;;;;23.50;15.25;;;;;4.70;61.22;102119.56;5022151;28;45384;-56
2021/12/21 10:34:53;;;;;;;;;27.25;20.00;;;;;4.74;61.40;102126.47;5023714;28;45575;-57
2021/12/21 10:37:30;;;;;;;;;21.75;19.00;;;;;4.76;61.86;102117.72;5019455;28;45437;-56
2021/12/21 10:40:28;;;;;;;;;23.25;16.00;;;;;4.80;61.84;102115.06;5023217;28;45436;-56
2021/12/21 10:43:00;;;;;;;;;27.00;18.50;;;;;4.80;61.92;102113.31;5023374;28;45317;-56
2021/12/21 10:45:27;;;;;;;;;24.50;17.00;;;;;4.80;62.08;102115.94;5023562;28;45493;-56
2021/12/21 10:47:53;;;;;;;;;17.00;13.00;;;;;4.82;61.58;102108.97;5023232;28;45485;-55
2021/12/21 10:50:19;;;;;;;;;26.50;25.50;;;;;4.84;61.42;102108.94;5023100;28;45355;-56
2021/12/21 10:52:51;;;;;;;;;26.00;20.25;;;;;4.85;61.53;102108.91;5023198;28;45446;-56
2021/12/21 10:55:23;;;;;;;;;24.00;21.25;;;;;4.90;61.49;102119.31;5022947;28;45409;-57
2021/12/21 10:57:48;;;;;;;;;26.25;21.25;;;;;4.89;61.49;102109.72;5023127;28;45184;-54
2021/12/21 11:00:16;;;;;;;;;24.75;20.50;;;;;4.88;60.76;102113.22;5022966;28;45344;-57
2021/12/21 11:02:43;;;;;;;;;36.00;24.25;;;;;4.87;61.27;102114.97;5022913;28;45379;-56
2021/12/21 11:05:13;;;;;;;;;24.75;19.00;;;;;4.87;61.28;102109.75;5022597;28;45459;-56
2021/12/21 11:07:50;;;;;;;;;31.50;17.75;;;;;4.90;61.26;102120.16;5023021;28;45344;-56
2021/12/21 11:10:19;;;;;;;;;26.25;20.25;;;;;4.89;61.55;102115.81;5022766;28;45434;-56
2021/12/21 11:12:51;;;;;;;;;32.00;23.75;;;;;4.92;61.43;102112.31;5023022;28;45383;-57
2021/12/21 11:15:29;;;;;;;;;30.25;21.50;;;;;4.97;61.31;102116.56;5023060;28;45530;-57
2021/12/21 11:18:13;;;;;;;;;29.25;23.25;;;;;5.01;61.25;102107.81;5022538;28;46111;-57
2021/12/21 11:20:40;;;;;;;;;34.25;21.25;;;;;5.08;61.00;102112.94;5022702;28;45380;-57
2021/12/21 11:23:06;;;;;;;;;23.00;21.00;;;;;5.13;60.73;102111.97;5022650;28;45257;-57
2021/12/21 11:25:33;;;;;;;;;24.00;20.00;;;;;5.15;61.30;102102.41;5022540;28;45270;-55
2021/12/21 11:28:02;;;;;;;;;23.50;15.00;;;;;5.16;61.05;102098.03;5022437;28;46193;-56
2021/12/21 11:30:28;;;;;;;;;29.75;20.75;;;;;5.20;60.98;102099.69;5022503;28;45395;-56
2021/12/21 11:32:54;;;;;;;;;23.25;18.50;;;;;5.18;61.12;102088.41;5022366;28;45384;-56
2021/12/21 11:37:56;;;;;;;;;28.25;23.75;;;;;5.24;60.47;102076.13;5022541;28;46886;-56
2021/12/21 11:40:25;;;;;;;;;22.00;16.00;;;;;5.28;60.75;102087.38;5022158;28;45307;-55
2021/12/21 11:42:50;;;;;;;;;26.50;20.75;;;;;5.28;61.10;102083.00;5022022;28;45450;-56
2021/12/21 11:45:27;;;;;;;;;31.50;24.50;;;;;5.29;60.33;102076.94;5022448;28;45312;-56
2021/12/21 11:48:10;;;;;;;;;25.50;23.75;;;;;5.28;61.05;102080.41;5022210;28;45638;-57
2021/12/21 11:50:39;;;;;;;;;29.00;22.00;;;;;5.29;60.67;102078.66;5022227;28;45354;-56
2021/12/21 11:53:07;;;;;;;;;22.50;20.00;;;;;5.29;60.26;102069.09;5022240;28;45327;-57
2021/12/21 11:55:36;;;;;;;;;22.50;20.50;;;;;5.33;60.39;102072.50;5022042;28;45567;-57
2021/12/21 11:58:17;;;;;;;;;33.25;23.25;;;;;5.34;61.02;102069.00;5022187;28;45286;-57
2021/12/21 12:01:00;;;;;;;;;26.00;20.50;;;;;5.35;61.05;102070.72;5021989;28;45195;-58
2021/12/21 12:03:28;;;;;;;;;24.75;21.00;;;;;5.37;60.47;102073.31;5022022;28;45303;-58
2021/12/21 12:06:00;;;;;;;;;30.75;21.25;;;;;5.37;60.49;102079.38;5022101;28;45369;-58
2021/12/21 12:08:41;;;;;;;;;28.00;23.00;;;;;5.38;60.83;102070.69;5021328;28;45214;-56
2021/12/21 12:11:07;;;;;;;;;24.50;20.75;;;;;5.40;60.99;102057.59;5022036;28;45348;-58
2021/12/21 12:13:40;;;;;;;;;31.00;26.00;;;;;5.41;61.27;102056.69;5022028;28;45495;-58
2021/12/21 12:16:09;;;;;;;;;33.25;21.25;;;;;5.44;60.93;102049.66;5016842;28;45529;-56
2021/12/21 12:18:43;;;;;;;;;31.50;26.50;;;;;5.46;60.73;102052.28;5021556;28;46820;-55
2021/12/21 12:21:15;;;;;;;;;24.50;17.50;;;;;5.47;60.35;102043.53;5036721;28;45296;-58
2021/12/21 12:23:45;;;;;;;;;29.50;21.00;;;;;5.48;60.16;102040.03;5021399;28;45481;-58
2021/12/21 12:26:27;;;;;;;;;25.75;21.25;;;;;5.49;60.19;102039.13;5021654;28;45312;-58
2021/12/21 12:28:54;;;;;;;;;23.00;18.75;;;;;5.50;59.85;102041.72;5021687;28;45359;-58